createdAt,value
2018-05-23T00:03:18.676Z,6.70
2018-05-23T00:07:24.630Z,7.40
2018-05-23T00:11:27.634Z,6.70
2018-05-23T00:15:30.892Z,6.53
2018-05-23T00:19:33.550Z,6.67
2018-05-23T00:23:36.117Z,6.40
2018-05-23T00:27:38.658Z,6.63
2018-05-23T00:31:42.185Z,5.57
2018-05-23T00:35:46.321Z,6.43
2018-05-23T00:39:50.660Z,6.60
2018-05-23T00:43:54.702Z,6.67
2018-05-23T00:47:58.684Z,6.77
2018-05-23T00:52:01.767Z,6.30
2018-05-23T00:56:07.872Z,6.93
2018-05-23T01:00:10.398Z,6.40
2018-05-23T01:04:13.715Z,6.20
2018-05-23T01:08:19.712Z,6.70
2018-05-23T01:12:24.004Z,6.83
2018-05-23T01:16:27.304Z,7.00
2018-05-23T01:20:31.623Z,7.20
2018-05-23T01:24:34.905Z,7.17
2018-05-23T01:28:37.684Z,7.23
2018-05-23T01:32:40.202Z,7.13
2018-05-23T01:36:43.282Z,7.33
2018-05-23T01:40:47.363Z,7.17
2018-05-23T01:44:50.731Z,6.00
2018-05-23T01:49:05.210Z,7.27
2018-05-23T01:53:08.574Z,6.97
2018-05-23T01:57:11.153Z,7.17
2018-05-23T02:01:15.115Z,6.63
2018-05-23T02:05:20.345Z,6.50
2018-05-23T02:09:23.560Z,7.00
2018-05-23T02:13:26.744Z,6.87
2018-05-23T02:17:29.691Z,7.50
2018-05-23T02:21:32.268Z,6.57
2018-05-23T02:25:34.819Z,7.07
2018-05-23T02:29:43.914Z,7.53
2018-05-23T02:33:50.455Z,7.07
2018-05-23T02:37:54.008Z,7.37
2018-05-23T02:41:57.950Z,7.40
2018-05-23T02:46:02.397Z,7.13
2018-05-23T02:50:04.954Z,8.07
2018-05-23T02:54:07.470Z,7.43
2018-05-23T02:58:15.648Z,6.53
2018-05-23T03:02:20.558Z,6.67
2018-05-23T03:06:24.148Z,6.83
2018-05-23T03:10:27.160Z,7.70
2018-05-23T03:14:30.502Z,7.27
2018-05-23T03:18:33.131Z,7.40
2018-05-23T03:22:35.690Z,6.50
2018-05-23T03:26:38.220Z,6.97
2018-05-23T03:30:41.842Z,7.40
2018-05-23T03:34:44.441Z,7.40
2018-05-23T03:38:48.362Z,7.93
2018-05-23T03:42:52.541Z,7.90
2018-05-23T03:47:00.783Z,7.73
2018-05-23T03:51:03.326Z,7.27
2018-05-23T03:55:05.871Z,7.63
2018-05-23T03:59:16.126Z,7.40
2018-05-23T04:03:30.949Z,7.03
2018-05-23T04:07:38.202Z,7.47
2018-05-23T04:11:40.859Z,7.40
2018-05-23T04:15:44.284Z,7.07
2018-05-23T04:19:49.322Z,7.30
2018-05-23T04:23:53.989Z,7.60
2018-05-23T04:28:00.219Z,6.70
2018-05-23T04:32:16.691Z,5.83
2018-05-23T04:36:23.896Z,6.00
2018-05-23T04:40:27.083Z,6.73
2018-05-23T04:44:30.716Z,7.03
2018-05-23T04:48:33.278Z,6.70
2018-05-23T04:52:44.207Z,6.87
2018-05-23T04:56:53.600Z,6.63
2018-05-23T05:00:57.487Z,7.43
2018-05-23T05:05:03.183Z,7.27
2018-05-23T05:09:14.039Z,7.17
2018-05-23T05:13:19.690Z,7.40
2018-05-23T05:17:24.607Z,7.17
2018-05-23T05:21:28.678Z,7.30
2018-05-23T05:25:33.774Z,7.63
2018-05-23T05:29:44.203Z,7.53
2018-05-23T05:33:50.359Z,8.30
2018-05-23T05:38:01.988Z,7.93
2018-05-23T05:42:04.794Z,7.40
2018-05-23T05:46:19.710Z,8.50
2018-05-23T05:50:23.675Z,7.83
2018-05-23T05:54:28.416Z,7.57
2018-05-23T05:58:32.311Z,7.30
2018-05-23T06:02:35.915Z,7.60
2018-05-23T06:06:38.582Z,7.30
2018-05-23T06:10:44.653Z,8.03
2018-05-23T06:14:49.398Z,7.90
2018-05-23T06:18:53.404Z,6.87
2018-05-23T06:22:58.727Z,6.90
2018-05-23T06:27:02.457Z,7.70
2018-05-23T06:31:05.724Z,7.27
2018-05-23T06:35:08.252Z,7.37
2018-05-23T06:39:18.954Z,7.57
2018-05-23T06:43:25.269Z,7.60
2018-05-23T06:47:29.038Z,7.00
2018-05-23T06:51:31.724Z,7.40
2018-05-23T06:55:34.304Z,7.00
2018-05-23T06:59:43.855Z,6.63
2018-05-23T07:03:52.102Z,7.30
2018-05-23T07:07:54.864Z,7.47
2018-05-23T07:11:59.006Z,7.10
2018-05-23T07:16:02.435Z,7.20
2018-05-23T07:20:06.383Z,7.17
2018-05-23T07:24:08.931Z,7.10
2018-05-23T07:28:11.927Z,6.33
2018-05-23T07:32:23.979Z,6.13
2018-05-23T07:36:28.120Z,7.17
2018-05-23T07:40:30.929Z,6.50
2018-05-23T07:44:33.597Z,6.67
2018-05-23T07:48:47.394Z,6.20
2018-05-23T07:52:51.672Z,6.10
2018-05-23T07:56:54.826Z,6.13
2018-05-23T08:00:58.116Z,6.47
2018-05-23T08:05:01.323Z,7.03
2018-05-23T08:09:04.272Z,6.60
2018-05-23T08:13:06.807Z,6.30
2018-05-23T08:17:12.952Z,7.33
2018-05-23T08:21:15.702Z,8.00
2018-05-23T08:25:23.936Z,7.20
2018-05-23T08:29:28.895Z,7.80
2018-05-23T08:33:32.089Z,7.20
2018-05-23T08:37:34.631Z,7.03
2018-05-23T08:41:38.116Z,7.53
2018-05-23T08:45:40.751Z,7.53
2018-05-23T08:49:49.283Z,6.80
2018-05-23T08:54:04.382Z,6.83
2018-05-23T08:58:09.394Z,6.73
2018-05-23T09:02:12.676Z,6.60
2018-05-23T09:06:19.659Z,6.80
2018-05-23T09:10:23.446Z,6.97
2018-05-23T09:14:26.171Z,6.57
2018-05-23T09:18:29.935Z,7.43
2018-05-23T09:22:33.247Z,7.57
2018-05-23T09:26:48.415Z,7.93
2018-05-23T09:30:53.295Z,7.63
2018-05-23T09:34:56.886Z,8.00
2018-05-23T09:38:59.811Z,7.43
2018-05-23T09:43:02.350Z,7.50
2018-05-23T09:47:05.059Z,7.73
2018-05-23T09:51:14.003Z,8.43
2018-05-23T09:55:22.727Z,7.27
2018-05-23T09:59:27.658Z,8.00
2018-05-23T10:03:30.706Z,8.50
2018-05-23T10:07:45.132Z,8.17
2018-05-23T10:11:54.047Z,7.43
2018-05-23T10:15:57.734Z,8.13
2018-05-23T10:20:00.702Z,8.20
2018-05-23T10:24:03.414Z,7.77
2018-05-23T10:28:06.322Z,7.83
2018-05-23T10:32:08.904Z,7.60
2018-05-23T10:36:13.499Z,7.67
2018-05-23T10:44:31.912Z,8.03
2018-05-23T10:48:35.265Z,7.17
2018-05-23T10:52:45.952Z,7.63
2018-05-23T10:56:52.913Z,7.20
2018-05-23T11:01:01.638Z,7.53
2018-05-23T11:05:05.336Z,7.20
2018-05-23T11:09:07.891Z,7.33
2018-05-23T11:13:10.481Z,6.40
2018-05-23T11:17:13.919Z,7.73
2018-05-23T11:21:27.194Z,6.50
2018-05-23T11:25:30.476Z,5.87
2018-05-23T11:29:37.783Z,7.10
2018-05-23T11:33:40.358Z,6.30
2018-05-23T11:37:47.306Z,6.37
2018-05-23T11:41:51.740Z,6.60
2018-05-23T11:45:55.001Z,6.33
2018-05-23T11:49:59.301Z,5.73
2018-05-23T11:54:03.112Z,5.60
2018-05-23T11:58:05.770Z,5.17
2018-05-23T12:02:08.325Z,5.57
2018-05-23T12:06:11.742Z,5.00
2018-05-23T12:10:16.106Z,5.67
2018-05-23T12:14:24.691Z,6.10
2018-05-23T12:18:27.875Z,5.90
2018-05-23T12:22:30.555Z,5.83
2018-05-23T12:26:33.136Z,6.00
2018-05-23T12:30:35.715Z,6.73
2018-05-23T12:34:38.324Z,6.60
2018-05-23T12:38:41.972Z,6.97
2018-05-23T12:42:44.681Z,6.80
2018-05-23T12:46:48.732Z,6.47
2018-05-23T12:50:54.764Z,6.10
2018-05-23T12:54:59.052Z,5.73
2018-05-23T12:59:18.034Z,5.10
2018-05-23T13:03:21.270Z,6.00
2018-05-23T13:07:28.089Z,5.87
2018-05-23T13:11:31.615Z,5.30
2018-05-23T13:15:44.553Z,6.10
2018-05-23T13:19:49.319Z,4.73
2018-05-23T13:23:52.953Z,4.87
2018-05-23T13:27:56.471Z,4.73
2018-05-23T13:31:59.279Z,4.80
2018-05-23T13:36:10.402Z,4.80
2018-05-23T13:40:12.926Z,4.70
2018-05-23T13:44:16.901Z,4.80
2018-05-23T13:48:21.606Z,5.23
2018-05-23T13:52:27.830Z,4.83
2018-05-23T13:56:32.236Z,5.00
2018-05-23T14:00:34.897Z,5.37
2018-05-23T14:04:39.211Z,5.37
2018-05-23T14:08:41.774Z,5.00
2018-05-23T14:12:44.460Z,4.87
2018-05-23T14:16:48.573Z,5.30
2018-05-23T14:20:51.441Z,4.80
2018-05-23T14:24:54.798Z,5.10
2018-05-23T14:28:57.970Z,4.50
2018-05-23T14:33:00.655Z,4.27
2018-05-23T14:37:03.959Z,4.33
2018-05-23T14:41:10.411Z,4.63
2018-05-23T14:45:16.965Z,4.53
2018-05-23T14:49:20.533Z,4.50
2018-05-23T14:53:24.646Z,4.40
2018-05-23T14:57:28.342Z,4.23
2018-05-23T15:01:31.668Z,4.00
2018-05-23T15:05:38.225Z,4.10
2018-05-23T15:09:48.938Z,4.00
2018-05-23T15:13:54.237Z,4.43
2018-05-23T15:17:57.076Z,4.13
2018-05-23T15:21:59.794Z,4.73
2018-05-23T15:26:02.393Z,4.80
2018-05-23T15:30:05.079Z,4.10
2018-05-23T15:34:15.338Z,4.33
2018-05-23T15:38:21.513Z,4.73
2018-05-23T15:42:26.036Z,4.37
2018-05-23T15:46:29.954Z,4.50
2018-05-23T15:50:33.803Z,4.20
2018-05-23T15:55:03.310Z,4.57
2018-05-23T15:59:09.534Z,3.80
2018-05-23T16:03:12.179Z,3.47
2018-05-23T16:07:17.154Z,4.07
2018-05-23T16:11:21.062Z,3.50
2018-05-23T16:15:24.055Z,3.33
2018-05-23T16:19:27.811Z,3.50
2018-05-23T16:23:31.194Z,3.80
2018-05-23T16:27:33.894Z,3.80
2018-05-23T16:31:36.436Z,3.73
2018-05-23T16:35:45.132Z,4.17
2018-05-23T16:39:53.869Z,3.93
2018-05-23T16:43:57.029Z,3.60
2018-05-23T16:48:00.734Z,4.37
2018-05-23T16:52:04.226Z,4.60
2018-05-23T16:56:08.662Z,3.93
2018-05-23T17:00:17.896Z,4.27
2018-05-23T17:04:21.215Z,4.80
2018-05-23T17:08:25.256Z,4.50
2018-05-23T17:12:28.217Z,4.80
2018-05-23T17:16:31.755Z,4.90
2018-05-23T17:20:34.275Z,4.80
2018-05-23T17:24:37.663Z,5.00
2018-05-23T17:28:40.190Z,4.27
2018-05-23T17:32:47.304Z,5.13
2018-05-23T17:36:51.219Z,4.97
2018-05-23T17:40:54.874Z,5.57
2018-05-23T17:44:57.894Z,6.33
2018-05-23T17:49:04.638Z,6.20
2018-05-23T17:53:10.310Z,5.00
2018-05-23T17:57:14.848Z,4.63
2018-05-23T18:01:24.225Z,4.73
2018-05-23T18:05:27.675Z,4.90
2018-05-23T18:09:30.311Z,4.73
2018-05-23T18:13:36.039Z,5.10
2018-05-23T18:17:49.523Z,4.83
2018-05-23T18:21:54.404Z,4.77
2018-05-23T18:25:57.447Z,4.57
2018-05-23T18:30:06.169Z,4.77
2018-05-23T18:34:10.691Z,4.70
2018-05-23T18:38:15.208Z,5.40
2018-05-23T18:42:19.365Z,4.90
2018-05-23T18:46:23.106Z,4.80
2018-05-23T18:50:26.953Z,4.60
2018-05-23T18:54:29.717Z,4.77
2018-05-23T18:58:37.483Z,5.10
2018-05-23T19:02:42.067Z,5.10
2018-05-23T19:06:50.330Z,4.87
2018-05-23T19:10:55.179Z,5.47
2018-05-23T19:14:58.223Z,5.10
2018-05-23T19:19:01.197Z,5.27
2018-05-23T19:23:03.743Z,5.70
2018-05-23T19:27:12.219Z,4.93
2018-05-23T19:31:15.538Z,5.50
2018-05-23T19:35:20.474Z,5.43
2018-05-23T19:39:23.973Z,4.83
2018-05-23T19:43:27.038Z,5.43
2018-05-23T19:47:30.092Z,5.40
2018-05-23T19:51:32.615Z,4.70
2018-05-23T19:55:36.171Z,5.27
2018-05-23T19:59:49.684Z,5.33
2018-05-23T20:03:53.060Z,4.80
2018-05-23T20:07:56.341Z,5.97
2018-05-23T20:11:59.731Z,5.00
2018-05-23T20:16:02.282Z,5.47
2018-05-23T20:20:11.244Z,5.20
2018-05-23T20:24:14.648Z,5.17
2018-05-23T20:28:19.240Z,5.20
2018-05-23T20:32:23.067Z,5.60
2018-05-23T20:36:26.191Z,5.20
2018-05-23T20:40:29.177Z,5.43
2018-05-23T20:44:31.798Z,5.37
2018-05-23T20:48:34.390Z,5.17
2018-05-23T20:52:37.682Z,5.53
2018-05-23T20:56:44.446Z,5.67
2018-05-23T21:00:51.664Z,5.40
2018-05-23T21:04:57.170Z,5.57
2018-05-23T21:08:59.959Z,5.60
2018-05-23T21:13:02.780Z,5.80
2018-05-23T21:17:05.299Z,6.13
2018-05-23T21:21:11.610Z,5.87
2018-05-23T21:25:14.971Z,6.03
2018-05-23T21:29:19.013Z,5.80
2018-05-23T21:33:22.870Z,6.00
2018-05-23T21:37:25.710Z,6.10
2018-05-23T21:41:29.067Z,6.30
2018-05-23T21:45:32.403Z,6.27
2018-05-23T21:49:35.692Z,6.63
2018-05-23T21:53:38.258Z,5.73
2018-05-23T21:57:40.774Z,6.40
2018-05-23T22:01:47.422Z,5.83
2018-05-23T22:05:50.680Z,6.27
2018-05-23T22:09:53.822Z,6.47
2018-05-23T22:13:56.584Z,5.83
2018-05-23T22:17:59.522Z,6.20
2018-05-23T22:22:02.096Z,5.70
2018-05-23T22:26:05.438Z,6.70
2018-05-23T22:30:08.729Z,7.07
2018-05-23T22:34:11.306Z,6.53
2018-05-23T22:38:13.852Z,6.13
2018-05-23T22:42:18.170Z,7.03
2018-05-23T22:46:24.180Z,6.60
2018-05-23T22:50:27.138Z,6.63
2018-05-23T22:54:30.359Z,7.23
2018-05-23T22:58:33.035Z,7.07
2018-05-23T23:02:35.559Z,6.80
2018-05-23T23:06:38.899Z,7.10
2018-05-23T23:10:42.366Z,6.77
2018-05-23T23:14:45.212Z,6.97
2018-05-23T23:18:48.675Z,6.73
2018-05-23T23:22:52.133Z,6.63
2018-05-23T23:26:55.456Z,7.07
2018-05-23T23:30:58.531Z,6.27
2018-05-23T23:35:02.220Z,6.60
2018-05-23T23:39:04.794Z,6.33
2018-05-23T23:43:07.326Z,6.97
2018-05-23T23:47:09.875Z,6.33
2018-05-23T23:51:19.754Z,7.53
2018-05-23T23:55:24.628Z,6.47
2018-05-23T23:59:27.919Z,6.93
